sensor_id;sensor_type;location;lat;lon;timestamp;P1;durP1;ratioP1;P2;durP2;ratioP2
5217;SDS011;26539;51.064;6.346;2022-11-24T00:02:05;21.50;;;3.60;;
5217;SDS011;26539;51.064;6.346;2022-11-24T00:04:31;22.07;;;3.60;;
5217;SDS011;26539;51.064;6.346;2022-11-24T00:06:56;12.73;;;3.47;;
5217;SDS011;26539;51.064;6.346;2022-11-24T00:09:22;11.93;;;3.03;;
5217;SDS011;26539;51.064;6.346;2022-11-24T00:11:47;9.43;;;2.80;;
5217;SDS011;26539;51.064;6.346;2022-11-24T00:14:13;12.70;;;3.13;;
5217;SDS011;26539;51.064;6.346;2022-11-24T00:16:38;12.70;;;2.97;;
5217;SDS011;26539;51.064;6.346;2022-11-24T00:19:05;13.77;;;3.03;;
5217;SDS011;26539;51.064;6.346;2022-11-24T00:21:33;20.63;;;3.28;;
5217;SDS011;26539;51.064;6.346;2022-11-24T00:23:59;14.82;;;3.83;;
5217;SDS011;26539;51.064;6.346;2022-11-24T00:26:26;9.88;;;2.58;;
5217;SDS011;26539;51.064;6.346;2022-11-24T00:28:54;11.25;;;3.47;;
5217;SDS011;26539;51.064;6.346;2022-11-24T00:31:28;14.77;;;2.72;;
5217;SDS011;26539;51.064;6.346;2022-11-24T00:33:56;23.70;;;4.95;;
5217;SDS011;26539;51.064;6.346;2022-11-24T00:36:23;12.65;;;3.28;;
5217;SDS011;26539;51.064;6.346;2022-11-24T00:38:54;12.73;;;2.90;;
5217;SDS011;26539;51.064;6.346;2022-11-24T00:41:30;9.20;;;3.42;;
5217;SDS011;26539;51.064;6.346;2022-11-24T00:43:56;13.93;;;3.17;;
5217;SDS011;26539;51.064;6.346;2022-11-24T00:46:22;7.05;;;2.47;;
5217;SDS011;26539;51.064;6.346;2022-11-24T00:48:49;14.38;;;3.20;;
5217;SDS011;26539;51.064;6.346;2022-11-24T00:51:15;21.53;;;3.90;;
5217;SDS011;26539;51.064;6.346;2022-11-24T00:53:41;13.40;;;3.00;;
5217;SDS011;26539;51.064;6.346;2022-11-24T00:56:07;16.87;;;3.17;;
5217;SDS011;26539;51.064;6.346;2022-11-24T00:58:34;11.77;;;2.40;;
5217;SDS011;26539;51.064;6.346;2022-11-24T01:01:16;14.57;;;4.10;;
5217;SDS011;26539;51.064;6.346;2022-11-24T01:03:43;11.25;;;3.40;;
5217;SDS011;26539;51.064;6.346;2022-11-24T01:06:11;20.17;;;3.78;;
5217;SDS011;26539;51.064;6.346;2022-11-24T01:08:42;16.10;;;3.47;;
5217;SDS011;26539;51.064;6.346;2022-11-24T01:11:11;12.27;;;3.33;;
5217;SDS011;26539;51.064;6.346;2022-11-24T01:13:50;11.60;;;3.00;;
5217;SDS011;26539;51.064;6.346;2022-11-24T01:16:22;16.73;;;3.35;;
5217;SDS011;26539;51.064;6.346;2022-11-24T01:18:49;13.52;;;3.63;;
5217;SDS011;26539;51.064;6.346;2022-11-24T01:21:15;18.77;;;3.50;;
5217;SDS011;26539;51.064;6.346;2022-11-24T01:23:41;11.15;;;3.13;;
5217;SDS011;26539;51.064;6.346;2022-11-24T01:26:08;17.33;;;3.20;;
5217;SDS011;26539;51.064;6.346;2022-11-24T01:28:38;14.68;;;2.60;;
5217;SDS011;26539;51.064;6.346;2022-11-24T01:31:04;19.23;;;4.73;;
5217;SDS011;26539;51.064;6.346;2022-11-24T01:33:32;18.02;;;3.10;;
5217;SDS011;26539;51.064;6.346;2022-11-24T01:36:01;20.10;;;4.20;;
5217;SDS011;26539;51.064;6.346;2022-11-24T01:38:28;17.27;;;3.60;;
5217;SDS011;26539;51.064;6.346;2022-11-24T01:43:49;11.70;;;3.67;;
5217;SDS011;26539;51.064;6.346;2022-11-24T01:48:48;22.63;;;3.67;;
5217;SDS011;26539;51.064;6.346;2022-11-24T01:51:21;12.30;;;2.60;;
5217;SDS011;26539;51.064;6.346;2022-11-24T01:53:51;16.23;;;4.28;;
5217;SDS011;26539;51.064;6.346;2022-11-24T01:56:21;8.67;;;3.00;;
5217;SDS011;26539;51.064;6.346;2022-11-24T01:58:47;14.48;;;3.92;;
5217;SDS011;26539;51.064;6.346;2022-11-24T02:01:16;16.33;;;2.40;;
5217;SDS011;26539;51.064;6.346;2022-11-24T02:03:42;16.47;;;5.00;;
5217;SDS011;26539;51.064;6.346;2022-11-24T02:06:11;12.77;;;3.55;;
5217;SDS011;26539;51.064;6.346;2022-11-24T02:08:42;15.30;;;3.30;;
5217;SDS011;26539;51.064;6.346;2022-11-24T02:11:18;16.45;;;3.78;;
5217;SDS011;26539;51.064;6.346;2022-11-24T02:13:46;14.27;;;3.63;;
5217;SDS011;26539;51.064;6.346;2022-11-24T02:16:13;12.10;;;4.00;;
5217;SDS011;26539;51.064;6.346;2022-11-24T02:18:40;22.13;;;3.80;;
5217;SDS011;26539;51.064;6.346;2022-11-24T02:21:06;15.63;;;4.80;;
5217;SDS011;26539;51.064;6.346;2022-11-24T02:23:40;20.77;;;3.50;;
5217;SDS011;26539;51.064;6.346;2022-11-24T02:28:52;16.87;;;4.13;;
5217;SDS011;26539;51.064;6.346;2022-11-24T02:31:17;14.43;;;3.33;;
5217;SDS011;26539;51.064;6.346;2022-11-24T02:33:43;22.23;;;4.40;;
5217;SDS011;26539;51.064;6.346;2022-11-24T02:36:09;17.50;;;3.70;;
5217;SDS011;26539;51.064;6.346;2022-11-24T02:38:34;17.47;;;3.50;;
5217;SDS011;26539;51.064;6.346;2022-11-24T02:41:07;14.23;;;3.53;;
5217;SDS011;26539;51.064;6.346;2022-11-24T02:43:39;22.20;;;4.50;;
5217;SDS011;26539;51.064;6.346;2022-11-24T02:46:07;26.30;;;4.70;;
5217;SDS011;26539;51.064;6.346;2022-11-24T02:48:34;21.67;;;4.73;;
5217;SDS011;26539;51.064;6.346;2022-11-24T02:51:00;17.13;;;3.73;;
5217;SDS011;26539;51.064;6.346;2022-11-24T02:53:26;16.40;;;3.60;;
5217;SDS011;26539;51.064;6.346;2022-11-24T02:55:51;18.70;;;4.30;;
5217;SDS011;26539;51.064;6.346;2022-11-24T02:58:17;20.27;;;4.50;;
5217;SDS011;26539;51.064;6.346;2022-11-24T03:00:42;13.07;;;3.90;;
5217;SDS011;26539;51.064;6.346;2022-11-24T03:03:08;26.00;;;4.13;;
5217;SDS011;26539;51.064;6.346;2022-11-24T03:05:34;17.30;;;3.53;;
5217;SDS011;26539;51.064;6.346;2022-11-24T03:07:59;12.23;;;3.40;;
5217;SDS011;26539;51.064;6.346;2022-11-24T03:10:25;19.33;;;4.00;;
5217;SDS011;26539;51.064;6.346;2022-11-24T03:12:50;13.17;;;3.40;;
5217;SDS011;26539;51.064;6.346;2022-11-24T03:15:16;22.57;;;3.40;;
5217;SDS011;26539;51.064;6.346;2022-11-24T03:17:41;23.27;;;4.03;;
5217;SDS011;26539;51.064;6.346;2022-11-24T03:20:07;13.57;;;3.67;;
5217;SDS011;26539;51.064;6.346;2022-11-24T03:22:33;19.50;;;4.00;;
5217;SDS011;26539;51.064;6.346;2022-11-24T03:25:00;17.10;;;4.30;;
5217;SDS011;26539;51.064;6.346;2022-11-24T03:27:25;19.50;;;3.60;;
5217;SDS011;26539;51.064;6.346;2022-11-24T03:29:51;16.33;;;4.10;;
5217;SDS011;26539;51.064;6.346;2022-11-24T03:32:16;25.87;;;4.33;;
5217;SDS011;26539;51.064;6.346;2022-11-24T03:34:42;24.80;;;3.57;;
5217;SDS011;26539;51.064;6.346;2022-11-24T03:37:07;24.80;;;4.23;;
5217;SDS011;26539;51.064;6.346;2022-11-24T03:39:33;44.47;;;5.23;;
5217;SDS011;26539;51.064;6.346;2022-11-24T03:41:58;19.53;;;3.70;;
5217;SDS011;26539;51.064;6.346;2022-11-24T03:44:24;15.13;;;4.23;;
5217;SDS011;26539;51.064;6.346;2022-11-24T03:46:49;10.63;;;3.00;;
5217;SDS011;26539;51.064;6.346;2022-11-24T03:49:16;19.03;;;4.13;;
5217;SDS011;26539;51.064;6.346;2022-11-24T03:51:41;21.83;;;4.10;;
5217;SDS011;26539;51.064;6.346;2022-11-24T03:54:07;17.27;;;3.80;;
5217;SDS011;26539;51.064;6.346;2022-11-24T03:56:32;17.57;;;4.17;;
5217;SDS011;26539;51.064;6.346;2022-11-24T03:58:58;18.30;;;4.63;;
5217;SDS011;26539;51.064;6.346;2022-11-24T04:01:23;21.77;;;4.17;;
5217;SDS011;26539;51.064;6.346;2022-11-24T04:03:49;27.23;;;4.63;;
5217;SDS011;26539;51.064;6.346;2022-11-24T04:06:14;30.23;;;5.37;;
5217;SDS011;26539;51.064;6.346;2022-11-24T04:08:40;15.50;;;4.43;;
5217;SDS011;26539;51.064;6.346;2022-11-24T04:11:05;20.30;;;4.37;;
5217;SDS011;26539;51.064;6.346;2022-11-24T04:13:31;18.53;;;4.50;;
5217;SDS011;26539;51.064;6.346;2022-11-24T04:15:56;22.90;;;3.77;;
5217;SDS011;26539;51.064;6.346;2022-11-24T04:18:22;21.17;;;4.40;;
5217;SDS011;26539;51.064;6.346;2022-11-24T04:20:51;18.27;;;3.87;;
5217;SDS011;26539;51.064;6.346;2022-11-24T04:23:16;15.23;;;3.90;;
5217;SDS011;26539;51.064;6.346;2022-11-24T04:25:43;16.97;;;4.50;;
5217;SDS011;26539;51.064;6.346;2022-11-24T04:28:08;20.40;;;4.30;;
5217;SDS011;26539;51.064;6.346;2022-11-24T04:30:34;22.10;;;4.50;;
5217;SDS011;26539;51.064;6.346;2022-11-24T04:33:02;15.17;;;4.03;;
5217;SDS011;26539;51.064;6.346;2022-11-24T04:35:28;17.40;;;4.73;;
5217;SDS011;26539;51.064;6.346;2022-11-24T04:37:53;17.63;;;3.80;;
5217;SDS011;26539;51.064;6.346;2022-11-24T04:40:19;17.30;;;4.90;;
5217;SDS011;26539;51.064;6.346;2022-11-24T04:42:51;16.80;;;4.90;;
5217;SDS011;26539;51.064;6.346;2022-11-24T04:45:18;22.60;;;4.90;;
5217;SDS011;26539;51.064;6.346;2022-11-24T04:47:43;18.93;;;5.50;;
5217;SDS011;26539;51.064;6.346;2022-11-24T04:50:09;25.03;;;4.77;;
5217;SDS011;26539;51.064;6.346;2022-11-24T04:52:34;22.67;;;4.37;;
5217;SDS011;26539;51.064;6.346;2022-11-24T04:55:00;25.57;;;4.77;;
5217;SDS011;26539;51.064;6.346;2022-11-24T04:57:26;15.20;;;4.40;;
5217;SDS011;26539;51.064;6.346;2022-11-24T04:59:51;21.17;;;3.87;;
5217;SDS011;26539;51.064;6.346;2022-11-24T05:02:18;18.27;;;4.03;;
5217;SDS011;26539;51.064;6.346;2022-11-24T05:04:44;23.37;;;5.07;;
5217;SDS011;26539;51.064;6.346;2022-11-24T05:07:10;27.63;;;5.60;;
5217;SDS011;26539;51.064;6.346;2022-11-24T05:09:36;18.20;;;4.10;;
5217;SDS011;26539;51.064;6.346;2022-11-24T05:12:22;19.43;;;4.27;;
5217;SDS011;26539;51.064;6.346;2022-11-24T05:14:48;26.33;;;4.57;;
5217;SDS011;26539;51.064;6.346;2022-11-24T05:17:14;23.90;;;6.00;;
5217;SDS011;26539;51.064;6.346;2022-11-24T05:19:39;14.60;;;3.33;;
5217;SDS011;26539;51.064;6.346;2022-11-24T05:22:05;19.93;;;5.63;;
5217;SDS011;26539;51.064;6.346;2022-11-24T05:24:30;11.00;;;3.00;;
5217;SDS011;26539;51.064;6.346;2022-11-24T05:26:56;22.17;;;3.70;;
5217;SDS011;26539;51.064;6.346;2022-11-24T05:29:21;21.20;;;4.93;;
5217;SDS011;26539;51.064;6.346;2022-11-24T05:31:47;13.13;;;3.73;;
5217;SDS011;26539;51.064;6.346;2022-11-24T05:34:12;22.97;;;4.27;;
5217;SDS011;26539;51.064;6.346;2022-11-24T05:36:38;17.93;;;3.40;;
5217;SDS011;26539;51.064;6.346;2022-11-24T05:39:19;15.93;;;3.73;;
5217;SDS011;26539;51.064;6.346;2022-11-24T05:41:45;18.13;;;3.53;;
5217;SDS011;26539;51.064;6.346;2022-11-24T05:44:11;13.20;;;3.77;;
5217;SDS011;26539;51.064;6.346;2022-11-24T05:46:36;14.40;;;3.07;;
5217;SDS011;26539;51.064;6.346;2022-11-24T05:49:02;15.60;;;3.20;;
5217;SDS011;26539;51.064;6.346;2022-11-24T05:51:28;14.47;;;3.37;;
5217;SDS011;26539;51.064;6.346;2022-11-24T05:53:54;10.77;;;2.93;;
5217;SDS011;26539;51.064;6.346;2022-11-24T05:56:20;8.37;;;2.97;;
5217;SDS011;26539;51.064;6.346;2022-11-24T05:58:45;16.07;;;3.50;;
5217;SDS011;26539;51.064;6.346;2022-11-24T06:01:10;6.63;;;2.60;;
5217;SDS011;26539;51.064;6.346;2022-11-24T06:03:36;9.10;;;2.20;;
5217;SDS011;26539;51.064;6.346;2022-11-24T06:06:02;8.40;;;3.13;;
5217;SDS011;26539;51.064;6.346;2022-11-24T06:08:27;11.83;;;1.90;;
5217;SDS011;26539;51.064;6.346;2022-11-24T06:10:53;11.30;;;2.30;;
5217;SDS011;26539;51.064;6.346;2022-11-24T06:13:18;6.17;;;2.20;;
5217;SDS011;26539;51.064;6.346;2022-11-24T06:15:44;5.50;;;1.90;;
5217;SDS011;26539;51.064;6.346;2022-11-24T06:18:09;7.40;;;1.73;;
5217;SDS011;26539;51.064;6.346;2022-11-24T06:20:35;7.50;;;1.60;;
5217;SDS011;26539;51.064;6.346;2022-11-24T06:23:00;3.63;;;1.00;;
5217;SDS011;26539;51.064;6.346;2022-11-24T06:25:26;3.50;;;1.40;;
5217;SDS011;26539;51.064;6.346;2022-11-24T06:27:52;6.53;;;1.83;;
5217;SDS011;26539;51.064;6.346;2022-11-24T06:30:17;3.80;;;1.03;;
5217;SDS011;26539;51.064;6.346;2022-11-24T06:32:43;8.90;;;1.30;;
5217;SDS011;26539;51.064;6.346;2022-11-24T06:35:13;3.85;;;1.00;;
5217;SDS011;26539;51.064;6.346;2022-11-24T06:37:39;8.90;;;1.63;;
5217;SDS011;26539;51.064;6.346;2022-11-24T06:40:05;2.67;;;1.33;;
5217;SDS011;26539;51.064;6.346;2022-11-24T06:42:33;4.33;;;1.33;;
5217;SDS011;26539;51.064;6.346;2022-11-24T06:44:58;6.88;;;1.55;;
5217;SDS011;26539;51.064;6.346;2022-11-24T06:47:24;5.23;;;1.10;;
5217;SDS011;26539;51.064;6.346;2022-11-24T06:49:50;4.80;;;1.10;;
5217;SDS011;26539;51.064;6.346;2022-11-24T06:52:15;5.93;;;1.13;;
5217;SDS011;26539;51.064;6.346;2022-11-24T06:54:40;5.67;;;1.23;;
5217;SDS011;26539;51.064;6.346;2022-11-24T06:57:07;9.00;;;4.10;;
5217;SDS011;26539;51.064;6.346;2022-11-24T06:59:32;5.83;;;3.23;;
5217;SDS011;26539;51.064;6.346;2022-11-24T07:01:58;10.03;;;2.03;;
5217;SDS011;26539;51.064;6.346;2022-11-24T07:04:23;8.10;;;1.37;;
5217;SDS011;26539;51.064;6.346;2022-11-24T07:06:49;9.07;;;2.23;;
5217;SDS011;26539;51.064;6.346;2022-11-24T07:09:14;6.10;;;1.20;;
5217;SDS011;26539;51.064;6.346;2022-11-24T07:11:40;7.90;;;1.33;;
5217;SDS011;26539;51.064;6.346;2022-11-24T07:14:06;3.53;;;1.73;;
5217;SDS011;26539;51.064;6.346;2022-11-24T07:16:32;5.50;;;1.77;;
5217;SDS011;26539;51.064;6.346;2022-11-24T07:18:58;3.17;;;1.43;;
5217;SDS011;26539;51.064;6.346;2022-11-24T07:21:24;4.30;;;2.50;;
5217;SDS011;26539;51.064;6.346;2022-11-24T07:23:51;6.47;;;1.60;;
5217;SDS011;26539;51.064;6.346;2022-11-24T07:26:18;4.33;;;1.50;;
5217;SDS011;26539;51.064;6.346;2022-11-24T07:28:45;4.03;;;2.10;;
5217;SDS011;26539;51.064;6.346;2022-11-24T07:31:20;6.33;;;1.50;;
5217;SDS011;26539;51.064;6.346;2022-11-24T07:33:49;4.77;;;1.63;;
5217;SDS011;26539;51.064;6.346;2022-11-24T07:36:16;6.32;;;1.77;;
5217;SDS011;26539;51.064;6.346;2022-11-24T07:38:42;13.70;;;2.13;;
5217;SDS011;26539;51.064;6.346;2022-11-24T07:41:09;10.50;;;1.80;;
5217;SDS011;26539;51.064;6.346;2022-11-24T07:43:36;3.60;;;1.60;;
5217;SDS011;26539;51.064;6.346;2022-11-24T07:46:03;9.93;;;2.60;;
5217;SDS011;26539;51.064;6.346;2022-11-24T07:48:30;6.70;;;1.50;;
5217;SDS011;26539;51.064;6.346;2022-11-24T07:50:59;5.03;;;2.10;;
5217;SDS011;26539;51.064;6.346;2022-11-24T07:53:26;5.53;;;2.60;;
5217;SDS011;26539;51.064;6.346;2022-11-24T07:55:52;13.50;;;2.30;;
5217;SDS011;26539;51.064;6.346;2022-11-24T07:58:19;9.47;;;2.03;;
5217;SDS011;26539;51.064;6.346;2022-11-24T08:00:45;8.33;;;2.60;;
5217;SDS011;26539;51.064;6.346;2022-11-24T08:03:10;8.37;;;2.40;;
5217;SDS011;26539;51.064;6.346;2022-11-24T08:05:36;6.30;;;2.27;;
5217;SDS011;26539;51.064;6.346;2022-11-24T08:08:02;12.00;;;2.10;;
5217;SDS011;26539;51.064;6.346;2022-11-24T08:10:27;9.77;;;3.10;;
5217;SDS011;26539;51.064;6.346;2022-11-24T08:12:53;9.83;;;1.97;;
5217;SDS011;26539;51.064;6.346;2022-11-24T08:15:18;16.50;;;2.60;;
5217;SDS011;26539;51.064;6.346;2022-11-24T08:17:44;8.63;;;2.50;;
5217;SDS011;26539;51.064;6.346;2022-11-24T08:20:09;6.90;;;1.80;;
5217;SDS011;26539;51.064;6.346;2022-11-24T08:22:35;8.70;;;2.43;;
5217;SDS011;26539;51.064;6.346;2022-11-24T08:25:00;6.60;;;2.30;;
5217;SDS011;26539;51.064;6.346;2022-11-24T08:27:26;9.67;;;2.20;;
5217;SDS011;26539;51.064;6.346;2022-11-24T08:29:51;12.00;;;2.70;;
5217;SDS011;26539;51.064;6.346;2022-11-24T08:32:17;11.43;;;2.60;;
5217;SDS011;26539;51.064;6.346;2022-11-24T08:34:42;7.17;;;1.97;;
5217;SDS011;26539;51.064;6.346;2022-11-24T08:37:08;13.50;;;2.77;;
5217;SDS011;26539;51.064;6.346;2022-11-24T08:39:33;14.73;;;3.03;;
5217;SDS011;26539;51.064;6.346;2022-11-24T08:41:59;7.67;;;2.83;;
5217;SDS011;26539;51.064;6.346;2022-11-24T08:44:25;9.97;;;2.20;;
5217;SDS011;26539;51.064;6.346;2022-11-24T08:46:52;13.00;;;2.10;;
5217;SDS011;26539;51.064;6.346;2022-11-24T08:49:19;9.60;;;2.40;;
5217;SDS011;26539;51.064;6.346;2022-11-24T08:51:46;6.93;;;1.80;;
5217;SDS011;26539;51.064;6.346;2022-11-24T08:54:12;9.67;;;2.60;;
5217;SDS011;26539;51.064;6.346;2022-11-24T08:56:39;6.90;;;2.33;;
5217;SDS011;26539;51.064;6.346;2022-11-24T08:59:05;5.80;;;3.07;;
5217;SDS011;26539;51.064;6.346;2022-11-24T09:01:30;13.50;;;2.70;;
5217;SDS011;26539;51.064;6.346;2022-11-24T09:03:56;11.03;;;2.43;;
5217;SDS011;26539;51.064;6.346;2022-11-24T09:06:24;5.80;;;1.97;;
5217;SDS011;26539;51.064;6.346;2022-11-24T09:08:54;6.13;;;2.30;;
5217;SDS011;26539;51.064;6.346;2022-11-24T09:11:19;7.67;;;2.40;;
5217;SDS011;26539;51.064;6.346;2022-11-24T09:13:46;8.93;;;2.47;;
5217;SDS011;26539;51.064;6.346;2022-11-24T09:16:16;14.73;;;2.77;;
5217;SDS011;26539;51.064;6.346;2022-11-24T09:18:46;13.63;;;2.33;;
5217;SDS011;26539;51.064;6.346;2022-11-24T09:23:39;8.30;;;2.47;;
5217;SDS011;26539;51.064;6.346;2022-11-24T09:26:06;9.90;;;2.63;;
5217;SDS011;26539;51.064;6.346;2022-11-24T09:28:39;13.93;;;2.93;;
5217;SDS011;26539;51.064;6.346;2022-11-24T09:31:06;7.13;;;1.90;;
5217;SDS011;26539;51.064;6.346;2022-11-24T09:33:34;10.03;;;2.23;;
5217;SDS011;26539;51.064;6.346;2022-11-24T09:36:00;7.90;;;3.60;;
5217;SDS011;26539;51.064;6.346;2022-11-24T09:38:27;9.07;;;1.87;;
5217;SDS011;26539;51.064;6.346;2022-11-24T09:40:53;8.97;;;2.00;;
5217;SDS011;26539;51.064;6.346;2022-11-24T09:45:54;8.00;;;2.40;;
5217;SDS011;26539;51.064;6.346;2022-11-24T09:48:36;5.40;;;1.77;;
5217;SDS011;26539;51.064;6.346;2022-11-24T09:51:07;7.20;;;2.77;;
5217;SDS011;26539;51.064;6.346;2022-11-24T09:56:25;7.37;;;2.20;;
5217;SDS011;26539;51.064;6.346;2022-11-24T09:58:51;9.20;;;2.60;;
5217;SDS011;26539;51.064;6.346;2022-11-24T10:01:30;15.27;;;2.10;;
5217;SDS011;26539;51.064;6.346;2022-11-24T10:04:01;15.47;;;3.13;;
5217;SDS011;26539;51.064;6.346;2022-11-24T10:12:08;15.60;;;4.20;;
5217;SDS011;26539;51.064;6.346;2022-11-24T10:15:03;7.27;;;2.30;;
5217;SDS011;26539;51.064;6.346;2022-11-24T10:17:44;10.60;;;2.03;;
5217;SDS011;26539;51.064;6.346;2022-11-24T10:25:58;11.77;;;2.53;;
5217;SDS011;26539;51.064;6.346;2022-11-24T10:33:41;10.80;;;2.80;;
5217;SDS011;26539;51.064;6.346;2022-11-24T10:36:09;8.57;;;2.23;;
5217;SDS011;26539;51.064;6.346;2022-11-24T10:38:44;6.93;;;1.87;;
5217;SDS011;26539;51.064;6.346;2022-11-24T10:41:19;9.00;;;2.63;;
5217;SDS011;26539;51.064;6.346;2022-11-24T10:43:50;9.70;;;2.50;;
5217;SDS011;26539;51.064;6.346;2022-11-24T10:46:21;6.63;;;1.90;;
5217;SDS011;26539;51.064;6.346;2022-11-24T10:48:52;9.70;;;2.70;;
5217;SDS011;26539;51.064;6.346;2022-11-24T10:54:00;6.43;;;2.10;;
5217;SDS011;26539;51.064;6.346;2022-11-24T10:56:37;10.63;;;2.53;;
5217;SDS011;26539;51.064;6.346;2022-11-24T10:59:20;9.47;;;2.43;;
5217;SDS011;26539;51.064;6.346;2022-11-24T11:01:49;7.83;;;2.40;;
5217;SDS011;26539;51.064;6.346;2022-11-24T11:04:20;17.27;;;2.87;;
5217;SDS011;26539;51.064;6.346;2022-11-24T11:06:49;9.47;;;2.20;;
5217;SDS011;26539;51.064;6.346;2022-11-24T11:09:16;12.37;;;2.97;;
5217;SDS011;26539;51.064;6.346;2022-11-24T11:11:43;10.13;;;2.80;;
5217;SDS011;26539;51.064;6.346;2022-11-24T11:14:12;11.77;;;2.80;;
5217;SDS011;26539;51.064;6.346;2022-11-24T11:16:54;9.77;;;2.57;;
5217;SDS011;26539;51.064;6.346;2022-11-24T11:19:30;9.73;;;3.10;;
5217;SDS011;26539;51.064;6.346;2022-11-24T11:22:03;6.80;;;2.33;;
5217;SDS011;26539;51.064;6.346;2022-11-24T11:24:35;12.00;;;3.00;;
5217;SDS011;26539;51.064;6.346;2022-11-24T11:27:16;10.90;;;2.13;;
5217;SDS011;26539;51.064;6.346;2022-11-24T11:29:43;6.37;;;2.03;;
5217;SDS011;26539;51.064;6.346;2022-11-24T11:32:25;8.90;;;2.97;;
5217;SDS011;26539;51.064;6.346;2022-11-24T11:34:53;8.73;;;2.50;;
5217;SDS011;26539;51.064;6.346;2022-11-24T11:37:21;6.77;;;2.23;;
5217;SDS011;26539;51.064;6.346;2022-11-24T11:39:51;7.40;;;2.80;;
5217;SDS011;26539;51.064;6.346;2022-11-24T11:42:26;9.47;;;2.20;;
5217;SDS011;26539;51.064;6.346;2022-11-24T11:50:12;9.80;;;2.87;;
5217;SDS011;26539;51.064;6.346;2022-11-24T11:55:58;9.93;;;3.10;;
5217;SDS011;26539;51.064;6.346;2022-11-24T12:03:54;5.73;;;1.90;;
5217;SDS011;26539;51.064;6.346;2022-11-24T12:15:07;11.80;;;3.33;;
5217;SDS011;26539;51.064;6.346;2022-11-24T12:17:53;10.60;;;2.80;;
5217;SDS011;26539;51.064;6.346;2022-11-24T12:23:31;5.50;;;2.70;;
5217;SDS011;26539;51.064;6.346;2022-11-24T12:26:16;7.97;;;2.73;;
5217;SDS011;26539;51.064;6.346;2022-11-24T12:28:49;9.37;;;3.20;;
5217;SDS011;26539;51.064;6.346;2022-11-24T12:31:26;9.50;;;2.20;;
5217;SDS011;26539;51.064;6.346;2022-11-24T12:34:03;9.40;;;3.20;;
5217;SDS011;26539;51.064;6.346;2022-11-24T12:39:50;10.57;;;2.70;;
5217;SDS011;26539;51.064;6.346;2022-11-24T12:45:32;12.20;;;3.23;;
5217;SDS011;26539;51.064;6.346;2022-11-24T12:50:40;11.03;;;2.30;;
5217;SDS011;26539;51.064;6.346;2022-11-24T12:53:11;7.83;;;2.57;;
5217;SDS011;26539;51.064;6.346;2022-11-24T12:55:47;8.77;;;2.67;;
5217;SDS011;26539;51.064;6.346;2022-11-24T12:58:18;15.33;;;3.23;;
5217;SDS011;26539;51.064;6.346;2022-11-24T13:06:21;10.03;;;2.60;;
5217;SDS011;26539;51.064;6.346;2022-11-24T13:09:05;10.87;;;3.17;;
5217;SDS011;26539;51.064;6.346;2022-11-24T13:11:47;7.57;;;2.40;;
5217;SDS011;26539;51.064;6.346;2022-11-24T13:14:22;12.63;;;2.67;;
5217;SDS011;26539;51.064;6.346;2022-11-24T13:16:58;10.50;;;2.97;;
5217;SDS011;26539;51.064;6.346;2022-11-24T13:19:27;10.13;;;2.87;;
5217;SDS011;26539;51.064;6.346;2022-11-24T13:22:02;10.73;;;3.27;;
5217;SDS011;26539;51.064;6.346;2022-11-24T13:24:31;13.27;;;3.60;;
5217;SDS011;26539;51.064;6.346;2022-11-24T13:29:44;10.17;;;2.80;;
5217;SDS011;26539;51.064;6.346;2022-11-24T13:39:54;6.87;;;2.30;;
5217;SDS011;26539;51.064;6.346;2022-11-24T13:42:20;10.43;;;3.63;;
5217;SDS011;26539;51.064;6.346;2022-11-24T13:57:43;15.90;;;3.37;;
5217;SDS011;26539;51.064;6.346;2022-11-24T14:00:21;9.23;;;2.60;;
5217;SDS011;26539;51.064;6.346;2022-11-24T14:05:59;7.33;;;2.20;;
5217;SDS011;26539;51.064;6.346;2022-11-24T14:08:27;6.83;;;2.70;;
5217;SDS011;26539;51.064;6.346;2022-11-24T14:11:02;10.30;;;3.13;;
5217;SDS011;26539;51.064;6.346;2022-11-24T14:13:35;13.23;;;3.43;;
5217;SDS011;26539;51.064;6.346;2022-11-24T14:16:17;11.53;;;2.37;;
5217;SDS011;26539;51.064;6.346;2022-11-24T14:18:47;12.37;;;3.60;;
5217;SDS011;26539;51.064;6.346;2022-11-24T14:23:49;8.60;;;2.40;;
5217;SDS011;26539;51.064;6.346;2022-11-24T14:26:33;17.40;;;3.97;;
5217;SDS011;26539;51.064;6.346;2022-11-24T14:31:39;12.27;;;3.43;;
5217;SDS011;26539;51.064;6.346;2022-11-24T14:36:41;10.07;;;3.20;;
5217;SDS011;26539;51.064;6.346;2022-11-24T14:39:11;14.23;;;3.17;;
5217;SDS011;26539;51.064;6.346;2022-11-24T14:41:38;10.63;;;4.23;;
5217;SDS011;26539;51.064;6.346;2022-11-24T14:44:11;9.40;;;2.80;;
5217;SDS011;26539;51.064;6.346;2022-11-24T14:46:42;11.40;;;3.10;;
5217;SDS011;26539;51.064;6.346;2022-11-24T14:49:08;10.40;;;2.37;;
5217;SDS011;26539;51.064;6.346;2022-11-24T14:51:34;7.87;;;2.33;;
5217;SDS011;26539;51.064;6.346;2022-11-24T14:54:02;8.33;;;2.23;;
5217;SDS011;26539;51.064;6.346;2022-11-24T14:56:31;9.33;;;2.73;;
5217;SDS011;26539;51.064;6.346;2022-11-24T14:59:02;8.40;;;2.40;;
5217;SDS011;26539;51.064;6.346;2022-11-24T15:01:30;14.77;;;3.03;;
5217;SDS011;26539;51.064;6.346;2022-11-24T15:06:44;13.97;;;3.17;;
5217;SDS011;26539;51.064;6.346;2022-11-24T15:09:28;15.87;;;3.20;;
5217;SDS011;26539;51.064;6.346;2022-11-24T15:12:03;13.97;;;3.23;;
5217;SDS011;26539;51.064;6.346;2022-11-24T15:14:46;8.93;;;2.47;;
5217;SDS011;26539;51.064;6.346;2022-11-24T15:17:18;11.20;;;3.30;;
5217;SDS011;26539;51.064;6.346;2022-11-24T15:19:48;10.23;;;3.33;;
5217;SDS011;26539;51.064;6.346;2022-11-24T15:22:38;15.90;;;4.20;;
5217;SDS011;26539;51.064;6.346;2022-11-24T15:27:49;11.77;;;3.87;;
5217;SDS011;26539;51.064;6.346;2022-11-24T15:30:15;9.90;;;4.40;;
5217;SDS011;26539;51.064;6.346;2022-11-24T15:32:51;15.53;;;4.07;;
5217;SDS011;26539;51.064;6.346;2022-11-24T15:35:17;9.00;;;3.90;;
5217;SDS011;26539;51.064;6.346;2022-11-24T15:37:43;13.47;;;3.40;;
5217;SDS011;26539;51.064;6.346;2022-11-24T15:40:09;12.33;;;3.33;;
5217;SDS011;26539;51.064;6.346;2022-11-24T15:42:35;15.23;;;3.13;;
5217;SDS011;26539;51.064;6.346;2022-11-24T15:45:00;8.30;;;2.50;;
5217;SDS011;26539;51.064;6.346;2022-11-24T15:47:26;10.57;;;2.53;;
5217;SDS011;26539;51.064;6.346;2022-11-24T15:49:51;10.53;;;3.53;;
5217;SDS011;26539;51.064;6.346;2022-11-24T15:52:17;11.70;;;3.00;;
5217;SDS011;26539;51.064;6.346;2022-11-24T15:54:44;10.63;;;2.70;;
5217;SDS011;26539;51.064;6.346;2022-11-24T15:57:13;13.87;;;3.37;;
5217;SDS011;26539;51.064;6.346;2022-11-24T15:59:39;12.70;;;2.67;;
5217;SDS011;26539;51.064;6.346;2022-11-24T16:02:04;10.63;;;2.60;;
5217;SDS011;26539;51.064;6.346;2022-11-24T16:04:31;6.50;;;2.80;;
5217;SDS011;26539;51.064;6.346;2022-11-24T16:06:57;11.80;;;3.17;;
5217;SDS011;26539;51.064;6.346;2022-11-24T16:09:22;10.63;;;3.30;;
5217;SDS011;26539;51.064;6.346;2022-11-24T16:11:48;11.80;;;3.47;;
5217;SDS011;26539;51.064;6.346;2022-11-24T16:14:13;13.57;;;3.80;;
5217;SDS011;26539;51.064;6.346;2022-11-24T16:16:39;11.80;;;3.50;;
5217;SDS011;26539;51.064;6.346;2022-11-24T16:19:05;14.30;;;3.80;;
5217;SDS011;26539;51.064;6.346;2022-11-24T16:21:32;17.10;;;3.33;;
5217;SDS011;26539;51.064;6.346;2022-11-24T16:23:57;9.30;;;3.20;;
5217;SDS011;26539;51.064;6.346;2022-11-24T16:26:23;12.00;;;2.80;;
5217;SDS011;26539;51.064;6.346;2022-11-24T16:28:49;7.03;;;3.90;;
5217;SDS011;26539;51.064;6.346;2022-11-24T16:31:15;9.00;;;3.23;;
5217;SDS011;26539;51.064;6.346;2022-11-24T16:33:41;19.73;;;6.13;;
5217;SDS011;26539;51.064;6.346;2022-11-24T16:36:08;12.27;;;3.73;;
5217;SDS011;26539;51.064;6.346;2022-11-24T16:38:34;11.67;;;3.40;;
5217;SDS011;26539;51.064;6.346;2022-11-24T16:40:59;13.33;;;3.97;;
5217;SDS011;26539;51.064;6.346;2022-11-24T16:43:27;14.03;;;4.50;;
5217;SDS011;26539;51.064;6.346;2022-11-24T16:48:45;13.67;;;4.53;;
5217;SDS011;26539;51.064;6.346;2022-11-24T16:51:13;13.80;;;3.30;;
5217;SDS011;26539;51.064;6.346;2022-11-24T16:53:39;11.23;;;2.90;;
5217;SDS011;26539;51.064;6.346;2022-11-24T16:56:06;7.67;;;3.13;;
5217;SDS011;26539;51.064;6.346;2022-11-24T16:58:32;9.50;;;2.77;;